sensor_id;sensor_type;location;lat;lon;timestamp;temperature;humidity
29241;DHT22;16268;49.880;8.648;2023-05-07T00:01:23;16.60;99.90
29241;DHT22;16268;49.880;8.648;2023-05-07T00:03:49;16.60;99.90
29241;DHT22;16268;49.880;8.648;2023-05-07T00:06:14;16.50;99.90
29241;DHT22;16268;49.880;8.648;2023-05-07T00:08:40;16.50;99.90
29241;DHT22;16268;49.880;8.648;2023-05-07T00:11:05;16.60;99.90
29241;DHT22;16268;49.880;8.648;2023-05-07T00:13:31;16.60;99.90
29241;DHT22;16268;49.880;8.648;2023-05-07T00:16:01;16.60;99.90
29241;DHT22;16268;49.880;8.648;2023-05-07T00:18:27;16.60;99.90
29241;DHT22;16268;49.880;8.648;2023-05-07T00:20:52;16.60;99.90
29241;DHT22;16268;49.880;8.648;2023-05-07T00:23:18;16.50;99.90
29241;DHT22;16268;49.880;8.648;2023-05-07T00:25:43;16.50;99.90
29241;DHT22;16268;49.880;8.648;2023-05-07T00:28:09;16.60;99.90
29241;DHT22;16268;49.880;8.648;2023-05-07T00:30:34;16.60;99.90
29241;DHT22;16268;49.880;8.648;2023-05-07T00:33:00;16.70;99.90
29241;DHT22;16268;49.880;8.648;2023-05-07T00:35:26;16.70;99.90
29241;DHT22;16268;49.880;8.648;2023-05-07T00:37:51;16.70;99.90
29241;DHT22;16268;49.880;8.648;2023-05-07T00:40:17;16.60;99.90
29241;DHT22;16268;49.880;8.648;2023-05-07T00:42:42;16.70;99.90
29241;DHT22;16268;49.880;8.648;2023-05-07T00:45:13;16.60;99.90
29241;DHT22;16268;49.880;8.648;2023-05-07T00:47:39;16.60;99.90
29241;DHT22;16268;49.880;8.648;2023-05-07T00:50:05;16.50;99.90
29241;DHT22;16268;49.880;8.648;2023-05-07T00:52:31;16.50;99.90
29241;DHT22;16268;49.880;8.648;2023-05-07T00:54:56;16.40;99.90
29241;DHT22;16268;49.880;8.648;2023-05-07T00:57:24;16.40;99.90
29241;DHT22;16268;49.880;8.648;2023-05-07T00:59:51;16.30;99.90
29241;DHT22;16268;49.880;8.648;2023-05-07T01:02:17;16.30;99.90
29241;DHT22;16268;49.880;8.648;2023-05-07T01:04:42;16.30;99.90
29241;DHT22;16268;49.880;8.648;2023-05-07T01:07:08;16.40;99.90
29241;DHT22;16268;49.880;8.648;2023-05-07T01:09:34;16.40;99.90
29241;DHT22;16268;49.880;8.648;2023-05-07T01:12:00;16.30;99.90
29241;DHT22;16268;49.880;8.648;2023-05-07T01:14:26;16.30;99.90
29241;DHT22;16268;49.880;8.648;2023-05-07T01:16:52;16.30;99.90
29241;DHT22;16268;49.880;8.648;2023-05-07T01:19:19;16.20;99.90
29241;DHT22;16268;49.880;8.648;2023-05-07T01:21:48;16.20;99.90
29241;DHT22;16268;49.880;8.648;2023-05-07T01:24:14;16.10;99.90
29241;DHT22;16268;49.880;8.648;2023-05-07T01:26:40;16.10;99.90
29241;DHT22;16268;49.880;8.648;2023-05-07T01:29:06;16.00;99.90
29241;DHT22;16268;49.880;8.648;2023-05-07T01:31:33;16.00;99.90
29241;DHT22;16268;49.880;8.648;2023-05-07T01:34:00;16.00;99.90
29241;DHT22;16268;49.880;8.648;2023-05-07T01:36:27;16.00;99.90
29241;DHT22;16268;49.880;8.648;2023-05-07T01:38:54;16.10;99.90
29241;DHT22;16268;49.880;8.648;2023-05-07T01:41:20;16.10;99.90
29241;DHT22;16268;49.880;8.648;2023-05-07T01:43:47;16.10;99.90
29241;DHT22;16268;49.880;8.648;2023-05-07T01:46:13;16.00;99.90
29241;DHT22;16268;49.880;8.648;2023-05-07T01:48:40;16.00;99.90
29241;DHT22;16268;49.880;8.648;2023-05-07T01:51:07;16.00;99.90
29241;DHT22;16268;49.880;8.648;2023-05-07T01:53:39;15.90;99.90
29241;DHT22;16268;49.880;8.648;2023-05-07T01:56:06;15.80;99.90
29241;DHT22;16268;49.880;8.648;2023-05-07T01:58:32;15.90;99.90
29241;DHT22;16268;49.880;8.648;2023-05-07T02:00:57;15.90;99.90
29241;DHT22;16268;49.880;8.648;2023-05-07T02:03:23;15.90;99.90
29241;DHT22;16268;49.880;8.648;2023-05-07T02:05:48;15.90;99.90
29241;DHT22;16268;49.880;8.648;2023-05-07T02:08:14;15.80;99.90
29241;DHT22;16268;49.880;8.648;2023-05-07T02:10:39;15.70;99.90
29241;DHT22;16268;49.880;8.648;2023-05-07T02:13:05;15.80;99.90
29241;DHT22;16268;49.880;8.648;2023-05-07T02:15:30;15.80;99.90
29241;DHT22;16268;49.880;8.648;2023-05-07T02:18:04;15.80;99.90
29241;DHT22;16268;49.880;8.648;2023-05-07T02:20:30;15.80;99.90
29241;DHT22;16268;49.880;8.648;2023-05-07T02:22:55;15.90;99.90
29241;DHT22;16268;49.880;8.648;2023-05-07T02:25:21;15.90;99.90
29241;DHT22;16268;49.880;8.648;2023-05-07T02:27:47;15.90;99.90
29241;DHT22;16268;49.880;8.648;2023-05-07T02:30:13;15.80;99.90
29241;DHT22;16268;49.880;8.648;2023-05-07T02:32:39;15.90;99.90
29241;DHT22;16268;49.880;8.648;2023-05-07T02:35:05;15.80;99.90
29241;DHT22;16268;49.880;8.648;2023-05-07T02:37:30;15.80;99.90
29241;DHT22;16268;49.880;8.648;2023-05-07T02:39:56;15.70;99.90
29241;DHT22;16268;49.880;8.648;2023-05-07T02:42:22;15.80;99.90
29241;DHT22;16268;49.880;8.648;2023-05-07T02:44:47;15.80;99.90
29241;DHT22;16268;49.880;8.648;2023-05-07T02:47:14;15.70;99.90
29241;DHT22;16268;49.880;8.648;2023-05-07T02:49:40;15.80;99.90
29241;DHT22;16268;49.880;8.648;2023-05-07T02:52:06;15.80;99.90
29241;DHT22;16268;49.880;8.648;2023-05-07T02:54:31;15.80;99.90
29241;DHT22;16268;49.880;8.648;2023-05-07T02:56:57;15.80;99.90
29241;DHT22;16268;49.880;8.648;2023-05-07T02:59:23;15.80;99.90
29241;DHT22;16268;49.880;8.648;2023-05-07T03:01:50;15.80;99.90
29241;DHT22;16268;49.880;8.648;2023-05-07T03:04:16;15.60;99.90
29241;DHT22;16268;49.880;8.648;2023-05-07T03:06:41;15.60;99.90
29241;DHT22;16268;49.880;8.648;2023-05-07T03:09:07;15.60;99.90
29241;DHT22;16268;49.880;8.648;2023-05-07T03:11:32;15.60;99.90
29241;DHT22;16268;49.880;8.648;2023-05-07T03:13:58;15.60;99.90
29241;DHT22;16268;49.880;8.648;2023-05-07T03:16:23;15.70;99.90
29241;DHT22;16268;49.880;8.648;2023-05-07T03:18:49;15.70;99.90
29241;DHT22;16268;49.880;8.648;2023-05-07T03:21:15;15.60;99.90
29241;DHT22;16268;49.880;8.648;2023-05-07T03:23:40;15.60;99.90
29241;DHT22;16268;49.880;8.648;2023-05-07T03:26:06;15.70;99.90
29241;DHT22;16268;49.880;8.648;2023-05-07T03:28:31;15.70;99.90
29241;DHT22;16268;49.880;8.648;2023-05-07T03:30:57;15.80;99.90
29241;DHT22;16268;49.880;8.648;2023-05-07T03:33:22;15.80;99.90
29241;DHT22;16268;49.880;8.648;2023-05-07T03:35:48;15.80;99.90
29241;DHT22;16268;49.880;8.648;2023-05-07T03:38:13;15.80;99.90
29241;DHT22;16268;49.880;8.648;2023-05-07T03:40:39;15.80;99.90
29241;DHT22;16268;49.880;8.648;2023-05-07T03:43:05;15.80;99.90
29241;DHT22;16268;49.880;8.648;2023-05-07T03:45:30;15.90;99.90
29241;DHT22;16268;49.880;8.648;2023-05-07T03:47:56;15.90;99.90
29241;DHT22;16268;49.880;8.648;2023-05-07T03:50:21;15.80;99.90
29241;DHT22;16268;49.880;8.648;2023-05-07T03:52:47;15.80;99.90
29241;DHT22;16268;49.880;8.648;2023-05-07T03:55:12;15.80;99.90
29241;DHT22;16268;49.880;8.648;2023-05-07T03:57:38;15.80;99.90
29241;DHT22;16268;49.880;8.648;2023-05-07T04:00:04;15.80;99.90
29241;DHT22;16268;49.880;8.648;2023-05-07T04:02:30;15.80;99.90
29241;DHT22;16268;49.880;8.648;2023-05-07T04:04:55;15.70;99.90
29241;DHT22;16268;49.880;8.648;2023-05-07T04:07:21;15.60;99.90
29241;DHT22;16268;49.880;8.648;2023-05-07T04:09:47;15.60;99.90
29241;DHT22;16268;49.880;8.648;2023-05-07T04:12:12;15.60;99.90
29241;DHT22;16268;49.880;8.648;2023-05-07T04:14:38;15.60;99.90
29241;DHT22;16268;49.880;8.648;2023-05-07T04:17:03;15.50;99.90
29241;DHT22;16268;49.880;8.648;2023-05-07T04:19:29;15.60;99.90
29241;DHT22;16268;49.880;8.648;2023-05-07T04:21:54;15.60;99.90
29241;DHT22;16268;49.880;8.648;2023-05-07T04:24:20;15.50;99.90
29241;DHT22;16268;49.880;8.648;2023-05-07T04:26:46;15.40;99.90
29241;DHT22;16268;49.880;8.648;2023-05-07T04:29:11;15.40;99.90
29241;DHT22;16268;49.880;8.648;2023-05-07T04:31:37;15.40;99.90
29241;DHT22;16268;49.880;8.648;2023-05-07T04:34:02;15.30;99.90
29241;DHT22;16268;49.880;8.648;2023-05-07T04:36:28;15.40;99.90
29241;DHT22;16268;49.880;8.648;2023-05-07T04:38:54;15.40;99.90
29241;DHT22;16268;49.880;8.648;2023-05-07T04:41:20;15.30;99.90
29241;DHT22;16268;49.880;8.648;2023-05-07T04:43:46;15.30;99.90
29241;DHT22;16268;49.880;8.648;2023-05-07T04:46:11;15.30;99.90
29241;DHT22;16268;49.880;8.648;2023-05-07T04:48:37;15.30;99.90
29241;DHT22;16268;49.880;8.648;2023-05-07T04:51:02;15.30;99.90
29241;DHT22;16268;49.880;8.648;2023-05-07T04:53:28;15.30;99.90
29241;DHT22;16268;49.880;8.648;2023-05-07T04:55:57;15.30;99.90
29241;DHT22;16268;49.880;8.648;2023-05-07T04:58:23;15.30;99.90
29241;DHT22;16268;49.880;8.648;2023-05-07T05:00:49;15.30;99.90
29241;DHT22;16268;49.880;8.648;2023-05-07T05:03:15;15.40;99.90
29241;DHT22;16268;49.880;8.648;2023-05-07T05:05:40;15.40;99.90
29241;DHT22;16268;49.880;8.648;2023-05-07T05:08:06;15.40;99.90
29241;DHT22;16268;49.880;8.648;2023-05-07T05:10:32;15.50;99.90
29241;DHT22;16268;49.880;8.648;2023-05-07T05:12:57;15.50;99.90
29241;DHT22;16268;49.880;8.648;2023-05-07T05:15:23;15.50;99.90
29241;DHT22;16268;49.880;8.648;2023-05-07T05:17:48;15.50;99.90
29241;DHT22;16268;49.880;8.648;2023-05-07T05:20:14;15.60;99.90
29241;DHT22;16268;49.880;8.648;2023-05-07T05:22:41;15.60;99.90
29241;DHT22;16268;49.880;8.648;2023-05-07T05:25:07;15.70;99.90
29241;DHT22;16268;49.880;8.648;2023-05-07T05:27:33;15.90;99.90
29241;DHT22;16268;49.880;8.648;2023-05-07T05:29:58;15.90;99.90
29241;DHT22;16268;49.880;8.648;2023-05-07T05:32:24;16.00;99.90
29241;DHT22;16268;49.880;8.648;2023-05-07T05:34:49;16.10;99.90
29241;DHT22;16268;49.880;8.648;2023-05-07T05:37:15;16.20;99.90
29241;DHT22;16268;49.880;8.648;2023-05-07T05:39:40;16.20;99.90
29241;DHT22;16268;49.880;8.648;2023-05-07T05:42:06;16.20;99.90
29241;DHT22;16268;49.880;8.648;2023-05-07T05:44:32;16.30;99.90
29241;DHT22;16268;49.880;8.648;2023-05-07T05:46:57;16.30;99.90
29241;DHT22;16268;49.880;8.648;2023-05-07T05:49:24;16.30;99.90
29241;DHT22;16268;49.880;8.648;2023-05-07T05:51:50;16.40;99.90
29241;DHT22;16268;49.880;8.648;2023-05-07T05:54:15;16.50;99.90
29241;DHT22;16268;49.880;8.648;2023-05-07T05:56:41;16.50;99.90
29241;DHT22;16268;49.880;8.648;2023-05-07T05:59:07;16.60;99.90
29241;DHT22;16268;49.880;8.648;2023-05-07T06:01:33;16.80;99.90
29241;DHT22;16268;49.880;8.648;2023-05-07T06:03:58;16.70;99.90
29241;DHT22;16268;49.880;8.648;2023-05-07T06:06:24;16.70;99.90
29241;DHT22;16268;49.880;8.648;2023-05-07T06:08:49;16.70;99.90
29241;DHT22;16268;49.880;8.648;2023-05-07T06:11:15;16.70;99.90
29241;DHT22;16268;49.880;8.648;2023-05-07T06:13:41;16.80;99.90
29241;DHT22;16268;49.880;8.648;2023-05-07T06:16:06;16.80;99.90
29241;DHT22;16268;49.880;8.648;2023-05-07T06:18:32;17.00;99.90
29241;DHT22;16268;49.880;8.648;2023-05-07T06:20:57;17.10;99.90
29241;DHT22;16268;49.880;8.648;2023-05-07T06:23:23;17.20;99.90
29241;DHT22;16268;49.880;8.648;2023-05-07T06:25:49;17.30;99.90
29241;DHT22;16268;49.880;8.648;2023-05-07T06:28:18;17.40;99.90
29241;DHT22;16268;49.880;8.648;2023-05-07T06:30:44;17.30;99.90
29241;DHT22;16268;49.880;8.648;2023-05-07T06:33:09;17.20;99.90
29241;DHT22;16268;49.880;8.648;2023-05-07T06:35:35;17.30;99.90
29241;DHT22;16268;49.880;8.648;2023-05-07T06:38:00;17.30;99.90
29241;DHT22;16268;49.880;8.648;2023-05-07T06:40:26;17.30;99.90
29241;DHT22;16268;49.880;8.648;2023-05-07T06:42:52;17.30;99.90
29241;DHT22;16268;49.880;8.648;2023-05-07T06:45:18;17.40;99.90
29241;DHT22;16268;49.880;8.648;2023-05-07T06:47:44;17.20;99.90
29241;DHT22;16268;49.880;8.648;2023-05-07T06:50:10;17.20;99.90
29241;DHT22;16268;49.880;8.648;2023-05-07T06:52:35;17.30;99.90
29241;DHT22;16268;49.880;8.648;2023-05-07T06:55:01;17.30;99.90
29241;DHT22;16268;49.880;8.648;2023-05-07T06:57:26;17.30;99.90
29241;DHT22;16268;49.880;8.648;2023-05-07T06:59:52;17.50;99.90
29241;DHT22;16268;49.880;8.648;2023-05-07T07:02:18;17.60;99.90
29241;DHT22;16268;49.880;8.648;2023-05-07T07:04:43;17.40;99.90
29241;DHT22;16268;49.880;8.648;2023-05-07T07:07:10;17.30;99.90
29241;DHT22;16268;49.880;8.648;2023-05-07T07:09:35;17.30;99.90
29241;DHT22;16268;49.880;8.648;2023-05-07T07:12:01;17.30;99.90
29241;DHT22;16268;49.880;8.648;2023-05-07T07:14:26;17.30;99.90
29241;DHT22;16268;49.880;8.648;2023-05-07T07:16:52;17.20;99.90
29241;DHT22;16268;49.880;8.648;2023-05-07T07:19:17;17.30;99.90
29241;DHT22;16268;49.880;8.648;2023-05-07T07:21:43;17.40;99.90
29241;DHT22;16268;49.880;8.648;2023-05-07T07:24:10;17.50;99.90
29241;DHT22;16268;49.880;8.648;2023-05-07T07:26:35;17.30;99.90
29241;DHT22;16268;49.880;8.648;2023-05-07T07:29:01;17.30;99.90
29241;DHT22;16268;49.880;8.648;2023-05-07T07:31:26;17.40;99.90
29241;DHT22;16268;49.880;8.648;2023-05-07T07:33:52;17.50;99.90
29241;DHT22;16268;49.880;8.648;2023-05-07T07:36:17;17.50;99.90
29241;DHT22;16268;49.880;8.648;2023-05-07T07:38:43;17.50;99.90
29241;DHT22;16268;49.880;8.648;2023-05-07T07:41:09;17.60;99.90
29241;DHT22;16268;49.880;8.648;2023-05-07T07:43:34;17.70;99.90
29241;DHT22;16268;49.880;8.648;2023-05-07T07:46:01;17.80;99.90
29241;DHT22;16268;49.880;8.648;2023-05-07T07:48:26;18.00;99.90
29241;DHT22;16268;49.880;8.648;2023-05-07T07:50:52;18.10;99.90
29241;DHT22;16268;49.880;8.648;2023-05-07T07:53:17;18.10;99.90
29241;DHT22;16268;49.880;8.648;2023-05-07T07:55:43;18.10;99.90
29241;DHT22;16268;49.880;8.648;2023-05-07T07:58:09;18.10;99.90
29241;DHT22;16268;49.880;8.648;2023-05-07T08:00:35;18.20;99.90
29241;DHT22;16268;49.880;8.648;2023-05-07T08:03:00;18.10;99.90
29241;DHT22;16268;49.880;8.648;2023-05-07T08:05:28;18.20;99.90
29241;DHT22;16268;49.880;8.648;2023-05-07T08:07:58;18.30;99.90
29241;DHT22;16268;49.880;8.648;2023-05-07T08:10:23;18.20;99.90
29241;DHT22;16268;49.880;8.648;2023-05-07T08:12:50;18.20;99.90
29241;DHT22;16268;49.880;8.648;2023-05-07T08:15:16;18.50;99.90
29241;DHT22;16268;49.880;8.648;2023-05-07T08:17:41;18.60;99.90
29241;DHT22;16268;49.880;8.648;2023-05-07T08:20:07;18.70;99.90
29241;DHT22;16268;49.880;8.648;2023-05-07T08:22:36;18.70;99.90
29241;DHT22;16268;49.880;8.648;2023-05-07T08:25:02;18.60;99.90
29241;DHT22;16268;49.880;8.648;2023-05-07T08:27:28;18.60;99.90
29241;DHT22;16268;49.880;8.648;2023-05-07T08:29:54;18.80;99.90
29241;DHT22;16268;49.880;8.648;2023-05-07T08:32:20;18.90;99.90
29241;DHT22;16268;49.880;8.648;2023-05-07T08:34:45;19.10;99.90
29241;DHT22;16268;49.880;8.648;2023-05-07T08:37:11;19.00;99.90
29241;DHT22;16268;49.880;8.648;2023-05-07T08:39:37;19.00;99.90
29241;DHT22;16268;49.880;8.648;2023-05-07T08:42:03;19.10;99.90
29241;DHT22;16268;49.880;8.648;2023-05-07T08:44:33;19.10;99.90
29241;DHT22;16268;49.880;8.648;2023-05-07T08:47:01;19.20;99.90
29241;DHT22;16268;49.880;8.648;2023-05-07T08:49:28;19.20;99.90
29241;DHT22;16268;49.880;8.648;2023-05-07T08:51:53;19.20;99.90
29241;DHT22;16268;49.880;8.648;2023-05-07T08:54:21;19.10;99.90
29241;DHT22;16268;49.880;8.648;2023-05-07T08:56:47;19.00;99.90
29241;DHT22;16268;49.880;8.648;2023-05-07T08:59:13;19.00;99.90
29241;DHT22;16268;49.880;8.648;2023-05-07T09:01:39;19.20;99.90
29241;DHT22;16268;49.880;8.648;2023-05-07T09:04:05;19.30;99.90
29241;DHT22;16268;49.880;8.648;2023-05-07T09:06:32;19.30;99.90
29241;DHT22;16268;49.880;8.648;2023-05-07T09:09:00;19.30;99.90
29241;DHT22;16268;49.880;8.648;2023-05-07T09:11:26;19.30;99.90
29241;DHT22;16268;49.880;8.648;2023-05-07T09:13:56;19.30;99.90
29241;DHT22;16268;49.880;8.648;2023-05-07T09:16:24;19.20;99.90
29241;DHT22;16268;49.880;8.648;2023-05-07T09:18:54;19.30;99.90
29241;DHT22;16268;49.880;8.648;2023-05-07T09:21:20;19.50;99.90
29241;DHT22;16268;49.880;8.648;2023-05-07T09:23:49;19.70;99.90
29241;DHT22;16268;49.880;8.648;2023-05-07T09:26:15;19.60;99.90
29241;DHT22;16268;49.880;8.648;2023-05-07T09:28:41;19.70;99.90
29241;DHT22;16268;49.880;8.648;2023-05-07T09:31:08;19.80;99.90
29241;DHT22;16268;49.880;8.648;2023-05-07T09:33:34;19.80;99.90
29241;DHT22;16268;49.880;8.648;2023-05-07T09:36:04;19.90;99.90
29241;DHT22;16268;49.880;8.648;2023-05-07T09:38:30;20.10;99.90
29241;DHT22;16268;49.880;8.648;2023-05-07T09:41:12;20.40;99.90
29241;DHT22;16268;49.880;8.648;2023-05-07T09:43:39;21.00;99.90
29241;DHT22;16268;49.880;8.648;2023-05-07T09:46:12;21.20;99.90
29241;DHT22;16268;49.880;8.648;2023-05-07T09:48:39;21.40;99.90
29241;DHT22;16268;49.880;8.648;2023-05-07T09:51:25;21.40;99.90
29241;DHT22;16268;49.880;8.648;2023-05-07T09:53:54;21.60;99.90
29241;DHT22;16268;49.880;8.648;2023-05-07T09:56:21;21.50;99.90
29241;DHT22;16268;49.880;8.648;2023-05-07T09:58:48;21.20;99.90
29241;DHT22;16268;49.880;8.648;2023-05-07T10:01:16;21.40;99.90
29241;DHT22;16268;49.880;8.648;2023-05-07T10:03:43;21.40;99.90
29241;DHT22;16268;49.880;8.648;2023-05-07T10:06:10;21.60;99.90
29241;DHT22;16268;49.880;8.648;2023-05-07T10:08:36;21.60;99.90
29241;DHT22;16268;49.880;8.648;2023-05-07T10:11:05;21.60;99.90
29241;DHT22;16268;49.880;8.648;2023-05-07T10:13:32;21.60;99.90
29241;DHT22;16268;49.880;8.648;2023-05-07T10:16:05;21.90;99.90
29241;DHT22;16268;49.880;8.648;2023-05-07T10:18:33;21.70;99.90
29241;DHT22;16268;49.880;8.648;2023-05-07T10:21:27;21.70;99.90
29241;DHT22;16268;49.880;8.648;2023-05-07T10:23:59;21.80;99.90
29241;DHT22;16268;49.880;8.648;2023-05-07T10:26:27;21.90;99.90
29241;DHT22;16268;49.880;8.648;2023-05-07T10:29:00;22.20;99.90
29241;DHT22;16268;49.880;8.648;2023-05-07T10:34:34;22.20;99.90
29241;DHT22;16268;49.880;8.648;2023-05-07T10:37:03;22.50;99.90
29241;DHT22;16268;49.880;8.648;2023-05-07T10:39:30;22.60;99.90
29241;DHT22;16268;49.880;8.648;2023-05-07T10:41:56;22.90;99.90
29241;DHT22;16268;49.880;8.648;2023-05-07T10:44:26;23.00;99.90
29241;DHT22;16268;49.880;8.648;2023-05-07T10:47:06;23.10;99.90
29241;DHT22;16268;49.880;8.648;2023-05-07T10:54:42;22.50;99.90
29241;DHT22;16268;49.880;8.648;2023-05-07T10:59:56;22.40;99.90
29241;DHT22;16268;49.880;8.648;2023-05-07T11:02:22;22.50;99.90
29241;DHT22;16268;49.880;8.648;2023-05-07T11:05:19;22.70;99.90
29241;DHT22;16268;49.880;8.648;2023-05-07T11:08:00;22.70;99.90
29241;DHT22;16268;49.880;8.648;2023-05-07T11:13:14;23.10;99.90
29241;DHT22;16268;49.880;8.648;2023-05-07T11:15:45;23.10;99.90
29241;DHT22;16268;49.880;8.648;2023-05-07T11:18:13;23.20;99.90
29241;DHT22;16268;49.880;8.648;2023-05-07T11:26:03;23.40;99.90
29241;DHT22;16268;49.880;8.648;2023-05-07T11:28:30;23.10;99.90
29241;DHT22;16268;49.880;8.648;2023-05-07T11:30:57;23.10;99.90
29241;DHT22;16268;49.880;8.648;2023-05-07T11:33:23;22.90;99.90
29241;DHT22;16268;49.880;8.648;2023-05-07T11:35:52;23.00;99.90
29241;DHT22;16268;49.880;8.648;2023-05-07T11:38:18;23.20;99.90
29241;DHT22;16268;49.880;8.648;2023-05-07T11:40:56;23.40;99.90
29241;DHT22;16268;49.880;8.648;2023-05-07T11:43:21;23.40;99.90
29241;DHT22;16268;49.880;8.648;2023-05-07T11:45:48;23.50;99.90
29241;DHT22;16268;49.880;8.648;2023-05-07T11:48:14;23.40;99.90
29241;DHT22;16268;49.880;8.648;2023-05-07T11:50:53;23.30;99.90
29241;DHT22;16268;49.880;8.648;2023-05-07T11:53:25;22.90;99.90
29241;DHT22;16268;49.880;8.648;2023-05-07T11:55:57;23.00;99.90
29241;DHT22;16268;49.880;8.648;2023-05-07T11:58:24;23.40;99.90
29241;DHT22;16268;49.880;8.648;2023-05-07T12:00:52;23.10;99.90
29241;DHT22;16268;49.880;8.648;2023-05-07T12:03:18;23.00;99.90
29241;DHT22;16268;49.880;8.648;2023-05-07T12:05:44;22.90;99.90
29241;DHT22;16268;49.880;8.648;2023-05-07T12:08:14;22.90;99.90
29241;DHT22;16268;49.880;8.648;2023-05-07T12:10:41;23.10;99.90
29241;DHT22;16268;49.880;8.648;2023-05-07T12:13:20;23.40;99.90
29241;DHT22;16268;49.880;8.648;2023-05-07T12:15:46;23.70;99.90
29241;DHT22;16268;49.880;8.648;2023-05-07T12:18:12;23.80;99.90
29241;DHT22;16268;49.880;8.648;2023-05-07T12:20:38;23.80;99.90
29241;DHT22;16268;49.880;8.648;2023-05-07T12:23:04;24.00;99.80
29241;DHT22;16268;49.880;8.648;2023-05-07T12:25:40;24.10;99.90
29241;DHT22;16268;49.880;8.648;2023-05-07T12:28:16;24.40;99.40
29241;DHT22;16268;49.880;8.648;2023-05-07T12:30:46;24.40;98.10
29241;DHT22;16268;49.880;8.648;2023-05-07T12:33:12;24.40;97.70
29241;DHT22;16268;49.880;8.648;2023-05-07T12:35:42;24.40;97.50
29241;DHT22;16268;49.880;8.648;2023-05-07T12:38:17;24.50;97.20
29241;DHT22;16268;49.880;8.648;2023-05-07T12:40:50;24.70;97.50
29241;DHT22;16268;49.880;8.648;2023-05-07T12:43:19;24.60;96.60
29241;DHT22;16268;49.880;8.648;2023-05-07T12:45:47;24.20;95.70
29241;DHT22;16268;49.880;8.648;2023-05-07T12:48:13;24.40;95.40
29241;DHT22;16268;49.880;8.648;2023-05-07T12:50:39;24.40;94.40
29241;DHT22;16268;49.880;8.648;2023-05-07T12:53:06;24.40;94.30
29241;DHT22;16268;49.880;8.648;2023-05-07T12:55:47;24.10;94.50
29241;DHT22;16268;49.880;8.648;2023-05-07T12:58:19;24.10;94.30
29241;DHT22;16268;49.880;8.648;2023-05-07T13:00:48;24.00;95.50
29241;DHT22;16268;49.880;8.648;2023-05-07T13:03:21;24.20;95.90
29241;DHT22;16268;49.880;8.648;2023-05-07T13:05:48;24.30;95.70
29241;DHT22;16268;49.880;8.648;2023-05-07T13:08:33;24.20;95.60
29241;DHT22;16268;49.880;8.648;2023-05-07T13:11:00;24.00;97.00
29241;DHT22;16268;49.880;8.648;2023-05-07T13:13:31;24.10;95.10
29241;DHT22;16268;49.880;8.648;2023-05-07T13:15:57;24.20;94.90
29241;DHT22;16268;49.880;8.648;2023-05-07T13:18:25;24.20;94.70
29241;DHT22;16268;49.880;8.648;2023-05-07T13:20:51;24.30;94.00
29241;DHT22;16268;49.880;8.648;2023-05-07T13:23:16;24.50;94.00
29241;DHT22;16268;49.880;8.648;2023-05-07T13:25:42;24.60;93.30
29241;DHT22;16268;49.880;8.648;2023-05-07T13:28:08;24.50;94.10
29241;DHT22;16268;49.880;8.648;2023-05-07T13:30:33;24.60;92.50
29241;DHT22;16268;49.880;8.648;2023-05-07T13:33:00;24.70;92.90
29241;DHT22;16268;49.880;8.648;2023-05-07T13:35:25;24.70;94.00
29241;DHT22;16268;49.880;8.648;2023-05-07T13:37:51;24.70;94.10
29241;DHT22;16268;49.880;8.648;2023-05-07T13:40:17;24.60;93.60
29241;DHT22;16268;49.880;8.648;2023-05-07T13:42:44;24.60;93.60
29241;DHT22;16268;49.880;8.648;2023-05-07T13:45:13;24.60;92.80
29241;DHT22;16268;49.880;8.648;2023-05-07T13:47:42;24.60;92.80
29241;DHT22;16268;49.880;8.648;2023-05-07T13:50:12;24.70;92.60
29241;DHT22;16268;49.880;8.648;2023-05-07T13:52:40;25.00;92.10
29241;DHT22;16268;49.880;8.648;2023-05-07T13:55:06;25.20;91.40
29241;DHT22;16268;49.880;8.648;2023-05-07T13:57:32;25.20;91.30
29241;DHT22;16268;49.880;8.648;2023-05-07T13:59:58;25.20;91.50
29241;DHT22;16268;49.880;8.648;2023-05-07T14:02:23;24.80;92.10
29241;DHT22;16268;49.880;8.648;2023-05-07T14:04:49;24.60;92.30
29241;DHT22;16268;49.880;8.648;2023-05-07T14:07:14;24.70;92.30
29241;DHT22;16268;49.880;8.648;2023-05-07T14:09:40;24.80;93.10
29241;DHT22;16268;49.880;8.648;2023-05-07T14:12:07;24.90;92.80
29241;DHT22;16268;49.880;8.648;2023-05-07T14:14:32;24.90;92.10
29241;DHT22;16268;49.880;8.648;2023-05-07T14:16:58;24.70;92.40
29241;DHT22;16268;49.880;8.648;2023-05-07T14:19:23;24.60;92.50
29241;DHT22;16268;49.880;8.648;2023-05-07T14:21:49;24.40;92.80
29241;DHT22;16268;49.880;8.648;2023-05-07T14:24:14;24.40;92.90
29241;DHT22;16268;49.880;8.648;2023-05-07T14:26:40;24.40;92.70
29241;DHT22;16268;49.880;8.648;2023-05-07T14:29:05;24.40;92.90
29241;DHT22;16268;49.880;8.648;2023-05-07T14:31:31;24.30;93.40
29241;DHT22;16268;49.880;8.648;2023-05-07T14:33:58;24.20;93.60
29241;DHT22;16268;49.880;8.648;2023-05-07T14:36:24;24.10;93.70
29241;DHT22;16268;49.880;8.648;2023-05-07T14:38:52;24.10;94.10
29241;DHT22;16268;49.880;8.648;2023-05-07T14:41:18;24.10;94.00
29241;DHT22;16268;49.880;8.648;2023-05-07T14:43:43;24.10;94.10
29241;DHT22;16268;49.880;8.648;2023-05-07T14:46:18;24.20;94.30
29241;DHT22;16268;49.880;8.648;2023-05-07T14:48:46;24.20;93.80
29241;DHT22;16268;49.880;8.648;2023-05-07T14:51:12;24.20;93.60
29241;DHT22;16268;49.880;8.648;2023-05-07T14:53:40;24.10;93.50
29241;DHT22;16268;49.880;8.648;2023-05-07T14:56:05;24.10;93.70
29241;DHT22;16268;49.880;8.648;2023-05-07T14:58:31;24.30;93.50
29241;DHT22;16268;49.880;8.648;2023-05-07T15:00:56;24.30;93.30
29241;DHT22;16268;49.880;8.648;2023-05-07T15:03:22;24.10;93.00
29241;DHT22;16268;49.880;8.648;2023-05-07T15:05:48;24.00;93.00
29241;DHT22;16268;49.880;8.648;2023-05-07T15:08:17;24.10;93.40
29241;DHT22;16268;49.880;8.648;2023-05-07T15:10:42;24.10;93.90
29241;DHT22;16268;49.880;8.648;2023-05-07T15:13:11;23.90;94.20
29241;DHT22;16268;49.880;8.648;2023-05-07T15:15:38;23.60;94.50
29241;DHT22;16268;49.880;8.648;2023-05-07T15:18:04;23.60;95.20
29241;DHT22;16268;49.880;8.648;2023-05-07T15:20:30;23.40;95.60
29241;DHT22;16268;49.880;8.648;2023-05-07T15:22:56;23.30;96.10
29241;DHT22;16268;49.880;8.648;2023-05-07T15:25:22;23.30;96.40
29241;DHT22;16268;49.880;8.648;2023-05-07T15:27:48;23.30;96.70
29241;DHT22;16268;49.880;8.648;2023-05-07T15:30:14;23.20;96.50
29241;DHT22;16268;49.880;8.648;2023-05-07T15:32:40;23.20;96.80
29241;DHT22;16268;49.880;8.648;2023-05-07T15:35:06;23.10;97.10
29241;DHT22;16268;49.880;8.648;2023-05-07T15:37:33;23.10;96.90
29241;DHT22;16268;49.880;8.648;2023-05-07T15:39:58;23.10;97.10
29241;DHT22;16268;49.880;8.648;2023-05-07T15:42:24;23.10;97.00
29241;DHT22;16268;49.880;8.648;2023-05-07T15:44:49;23.00;97.20
29241;DHT22;16268;49.880;8.648;2023-05-07T15:47:15;23.00;97.20